sensor_id;sensor_type;location;lat;lon;timestamp;pressure;altitude;pressure_sealevel;temperature;humidity
41624;BME280;27319;50.306;18.926;2023-04-02T00:02:28;97110.78;;;9.31;98.23
41624;BME280;27319;50.306;18.926;2023-04-02T00:10:45;97110.38;;;9.34;97.67
41624;BME280;27319;50.306;18.926;2023-04-02T00:17:43;97120.34;;;9.40;96.25
41624;BME280;27319;50.306;18.926;2023-04-02T00:21:15;97117.66;;;9.40;96.84
41624;BME280;27319;50.306;18.926;2023-04-02T00:25:11;97122.50;;;9.30;97.92
41624;BME280;27319;50.306;18.926;2023-04-02T00:29:11;97125.19;;;9.30;97.53
41624;BME280;27319;50.306;18.926;2023-04-02T00:32:52;97121.50;;;9.31;97.13
41624;BME280;27319;50.306;18.926;2023-04-02T00:36:13;97112.63;;;9.31;97.22
41624;BME280;27319;50.306;18.926;2023-04-02T00:40:16;97126.84;;;9.31;97.04
41624;BME280;27319;50.306;18.926;2023-04-02T00:44:15;97126.53;;;9.41;96.79
41624;BME280;27319;50.306;18.926;2023-04-02T00:48:38;97128.00;;;9.43;95.99
41624;BME280;27319;50.306;18.926;2023-04-02T00:52:18;97131.91;;;9.41;96.38
41624;BME280;27319;50.306;18.926;2023-04-02T00:56:24;97133.03;;;9.32;97.30
41624;BME280;27319;50.306;18.926;2023-04-02T01:00:43;97129.25;;;9.26;98.18
41624;BME280;27319;50.306;18.926;2023-04-02T01:04:56;97129.16;;;9.20;98.91
41624;BME280;27319;50.306;18.926;2023-04-02T01:12:32;97133.31;;;9.22;98.99
41624;BME280;27319;50.306;18.926;2023-04-02T01:15:42;97140.16;;;9.10;99.56
41624;BME280;27319;50.306;18.926;2023-04-02T01:22:14;97151.31;;;9.14;99.07
41624;BME280;27319;50.306;18.926;2023-04-02T01:25:45;97146.16;;;9.12;99.60
41624;BME280;27319;50.306;18.926;2023-04-02T01:29:43;97133.53;;;9.06;100.00
41624;BME280;27319;50.306;18.926;2023-04-02T01:33:29;97135.25;;;9.14;98.76
41624;BME280;27319;50.306;18.926;2023-04-02T01:40:59;97145.31;;;9.26;97.76
41624;BME280;27319;50.306;18.926;2023-04-02T01:45:14;97148.09;;;9.33;97.37
41624;BME280;27319;50.306;18.926;2023-04-02T01:49:15;97137.00;;;9.21;99.04
41624;BME280;27319;50.306;18.926;2023-04-02T01:53:15;97146.34;;;9.25;98.61
41624;BME280;27319;50.306;18.926;2023-04-02T01:57:15;97155.28;;;9.32;97.07
41624;BME280;27319;50.306;18.926;2023-04-02T02:01:03;97155.91;;;9.34;96.92
41624;BME280;27319;50.306;18.926;2023-04-02T02:05:03;97161.84;;;9.15;99.68
41624;BME280;27319;50.306;18.926;2023-04-02T02:09:24;97167.38;;;9.28;97.63
41624;BME280;27319;50.306;18.926;2023-04-02T02:13:23;97161.84;;;9.30;98.00
41624;BME280;27319;50.306;18.926;2023-04-02T02:17:06;97167.28;;;9.22;98.12
41624;BME280;27319;50.306;18.926;2023-04-02T02:20:33;97170.25;;;9.12;98.96
41624;BME280;27319;50.306;18.926;2023-04-02T02:24:42;97171.72;;;9.15;98.42
41624;BME280;27319;50.306;18.926;2023-04-02T02:28:49;97167.66;;;9.04;99.67
41624;BME280;27319;50.306;18.926;2023-04-02T02:36:34;97173.09;;;8.82;100.00
41624;BME280;27319;50.306;18.926;2023-04-02T02:40:18;97189.44;;;9.01;99.30
41624;BME280;27319;50.306;18.926;2023-04-02T02:44:18;97177.78;;;8.94;99.33
41624;BME280;27319;50.306;18.926;2023-04-02T02:48:18;97184.56;;;9.05;98.61
41624;BME280;27319;50.306;18.926;2023-04-02T02:55:34;97193.31;;;9.13;97.28
41624;BME280;27319;50.306;18.926;2023-04-02T02:59:35;97204.38;;;9.10;97.36
41624;BME280;27319;50.306;18.926;2023-04-02T03:03:35;97202.28;;;9.06;97.94
41624;BME280;27319;50.306;18.926;2023-04-02T03:07:36;97204.66;;;9.01;97.86
41624;BME280;27319;50.306;18.926;2023-04-02T03:11:57;97203.47;;;9.03;97.30
41624;BME280;27319;50.306;18.926;2023-04-02T03:15:57;97209.09;;;9.08;97.86
41624;BME280;27319;50.306;18.926;2023-04-02T03:19:28;97212.25;;;9.12;96.78
41624;BME280;27319;50.306;18.926;2023-04-02T03:23:57;97215.53;;;8.99;97.73
41624;BME280;27319;50.306;18.926;2023-04-02T03:27:39;97219.53;;;9.03;97.54
41624;BME280;27319;50.306;18.926;2023-04-02T03:31:34;97216.84;;;9.03;97.23
41624;BME280;27319;50.306;18.926;2023-04-02T03:35:37;97224.59;;;8.98;97.79
41624;BME280;27319;50.306;18.926;2023-04-02T03:39:41;97223.13;;;9.10;96.62
41624;BME280;27319;50.306;18.926;2023-04-02T03:43:42;97223.22;;;9.02;96.83
41624;BME280;27319;50.306;18.926;2023-04-02T03:51:36;97239.53;;;8.93;97.37
41624;BME280;27319;50.306;18.926;2023-04-02T03:55:23;97240.19;;;8.95;97.08
41624;BME280;27319;50.306;18.926;2023-04-02T04:06:53;97250.34;;;8.99;96.62
41624;BME280;27319;50.306;18.926;2023-04-02T04:10:57;97246.19;;;8.97;97.31
41624;BME280;27319;50.306;18.926;2023-04-02T04:15:07;97255.78;;;8.91;97.52
41624;BME280;27319;50.306;18.926;2023-04-02T04:19:00;97257.53;;;8.99;96.69
41624;BME280;27319;50.306;18.926;2023-04-02T04:22:29;97273.78;;;8.97;97.34
41624;BME280;27319;50.306;18.926;2023-04-02T04:26:28;97277.28;;;8.98;97.40
41624;BME280;27319;50.306;18.926;2023-04-02T04:30:27;97274.72;;;9.04;96.59
41624;BME280;27319;50.306;18.926;2023-04-02T04:34:28;97277.75;;;8.64;99.99
41624;BME280;27319;50.306;18.926;2023-04-02T04:42:02;97283.03;;;8.50;100.00
41624;BME280;27319;50.306;18.926;2023-04-02T04:46:11;97290.59;;;8.46;100.00
41624;BME280;27319;50.306;18.926;2023-04-02T04:50:31;97298.41;;;8.25;100.00
41624;BME280;27319;50.306;18.926;2023-04-02T04:54:16;97295.38;;;8.28;100.00
41624;BME280;27319;50.306;18.926;2023-04-02T05:01:59;97311.03;;;8.39;100.00
41624;BME280;27319;50.306;18.926;2023-04-02T05:05:59;97322.34;;;8.11;100.00
41624;BME280;27319;50.306;18.926;2023-04-02T05:13:49;97330.66;;;8.16;100.00
41624;BME280;27319;50.306;18.926;2023-04-02T05:17:03;97329.47;;;7.88;100.00
41624;BME280;27319;50.306;18.926;2023-04-02T05:20:15;97335.28;;;7.99;100.00
41624;BME280;27319;50.306;18.926;2023-04-02T05:23:24;97338.16;;;7.90;100.00
41624;BME280;27319;50.306;18.926;2023-04-02T05:26:41;97345.91;;;8.07;100.00
41624;BME280;27319;50.306;18.926;2023-04-02T05:29:48;97357.38;;;7.85;100.00
41624;BME280;27319;50.306;18.926;2023-04-02T05:33:04;97361.41;;;7.81;100.00
41624;BME280;27319;50.306;18.926;2023-04-02T05:36:09;97364.59;;;7.69;100.00
41624;BME280;27319;50.306;18.926;2023-04-02T05:39:31;97372.50;;;7.38;100.00
41624;BME280;27319;50.306;18.926;2023-04-02T05:43:32;97374.19;;;7.15;100.00
41624;BME280;27319;50.306;18.926;2023-04-02T05:47:32;97380.72;;;7.37;100.00
41624;BME280;27319;50.306;18.926;2023-04-02T05:51:40;97390.22;;;7.07;100.00
41624;BME280;27319;50.306;18.926;2023-04-02T05:55:50;97390.22;;;7.23;100.00
41624;BME280;27319;50.306;18.926;2023-04-02T05:59:50;97401.38;;;7.19;99.91
41624;BME280;27319;50.306;18.926;2023-04-02T06:03:52;97408.88;;;7.47;98.39
41624;BME280;27319;50.306;18.926;2023-04-02T06:07:57;97424.91;;;7.15;97.05
41624;BME280;27319;50.306;18.926;2023-04-02T06:12:40;97426.91;;;7.13;97.54
41624;BME280;27319;50.306;18.926;2023-04-02T06:15:56;97431.34;;;6.65;96.74
41624;BME280;27319;50.306;18.926;2023-04-02T06:19:19;97439.34;;;6.73;97.76
41624;BME280;27319;50.306;18.926;2023-04-02T06:26:59;97459.75;;;6.40;96.72
41624;BME280;27319;50.306;18.926;2023-04-02T06:31:00;97473.31;;;6.55;96.73
41624;BME280;27319;50.306;18.926;2023-04-02T06:35:00;97485.13;;;6.52;95.95
41624;BME280;27319;50.306;18.926;2023-04-02T06:39:03;97500.50;;;6.25;97.58
41624;BME280;27319;50.306;18.926;2023-04-02T06:43:04;97497.56;;;6.02;98.13
41624;BME280;27319;50.306;18.926;2023-04-02T06:47:06;97504.66;;;6.19;97.56
41624;BME280;27319;50.306;18.926;2023-04-02T06:51:06;97505.44;;;6.12;97.12
41624;BME280;27319;50.306;18.926;2023-04-02T06:55:05;97510.09;;;6.43;97.46
41624;BME280;27319;50.306;18.926;2023-04-02T06:59:04;97515.72;;;6.32;97.02
41624;BME280;27319;50.306;18.926;2023-04-02T07:02:44;97518.16;;;5.92;98.47
41624;BME280;27319;50.306;18.926;2023-04-02T07:06:45;97526.09;;;6.10;98.49
41624;BME280;27319;50.306;18.926;2023-04-02T07:10:45;97534.00;;;6.27;97.62
41624;BME280;27319;50.306;18.926;2023-04-02T07:14:46;97547.13;;;5.78;97.66
41624;BME280;27319;50.306;18.926;2023-04-02T07:18:29;97554.69;;;6.08;97.24
41624;BME280;27319;50.306;18.926;2023-04-02T07:21:31;97561.88;;;6.07;97.54
41624;BME280;27319;50.306;18.926;2023-04-02T07:24:32;97572.34;;;6.09;97.95
41624;BME280;27319;50.306;18.926;2023-04-02T07:27:32;97568.13;;;5.98;97.35
41624;BME280;27319;50.306;18.926;2023-04-02T07:30:34;97573.16;;;5.84;98.79
41624;BME280;27319;50.306;18.926;2023-04-02T07:33:56;97576.84;;;6.08;97.84
41624;BME280;27319;50.306;18.926;2023-04-02T07:37:58;97585.72;;;6.42;97.31
41624;BME280;27319;50.306;18.926;2023-04-02T07:42:09;97588.13;;;6.28;98.00
41624;BME280;27319;50.306;18.926;2023-04-02T07:45:49;97600.25;;;6.22;96.95
41624;BME280;27319;50.306;18.926;2023-04-02T07:49:50;97617.34;;;6.12;97.22
41624;BME280;27319;50.306;18.926;2023-04-02T07:53:54;97625.56;;;6.18;95.45
41624;BME280;27319;50.306;18.926;2023-04-02T07:57:58;97636.97;;;6.11;95.99
41624;BME280;27319;50.306;18.926;2023-04-02T08:01:59;97642.94;;;5.87;93.11
41624;BME280;27319;50.306;18.926;2023-04-02T08:06:03;97652.59;;;5.71;94.45
41624;BME280;27319;50.306;18.926;2023-04-02T08:10:04;97652.34;;;5.64;94.65
41624;BME280;27319;50.306;18.926;2023-04-02T08:13:30;97667.53;;;5.54;96.24
41624;BME280;27319;50.306;18.926;2023-04-02T08:17:31;97675.69;;;5.70;95.43
41624;BME280;27319;50.306;18.926;2023-04-02T08:21:12;97680.25;;;5.60;96.24
41624;BME280;27319;50.306;18.926;2023-04-02T08:24:13;97681.09;;;5.61;95.08
41624;BME280;27319;50.306;18.926;2023-04-02T08:27:17;97691.19;;;5.75;95.46
41624;BME280;27319;50.306;18.926;2023-04-02T08:30:18;97695.47;;;5.68;94.85
41624;BME280;27319;50.306;18.926;2023-04-02T08:33:40;97703.84;;;5.73;94.86
41624;BME280;27319;50.306;18.926;2023-04-02T08:37:36;97703.97;;;5.54;94.54
41624;BME280;27319;50.306;18.926;2023-04-02T08:40:58;97711.81;;;5.55;96.11
41624;BME280;27319;50.306;18.926;2023-04-02T08:45:19;97712.22;;;5.33;94.33
41624;BME280;27319;50.306;18.926;2023-04-02T08:48:43;97719.03;;;5.45;95.12
41624;BME280;27319;50.306;18.926;2023-04-02T08:52:46;97732.44;;;5.71;94.75
41624;BME280;27319;50.306;18.926;2023-04-02T08:57:06;97731.91;;;5.67;93.93
41624;BME280;27319;50.306;18.926;2023-04-02T09:01:06;97733.25;;;5.71;94.71
41624;BME280;27319;50.306;18.926;2023-04-02T09:05:08;97740.50;;;5.79;93.76
41624;BME280;27319;50.306;18.926;2023-04-02T09:09:08;97749.56;;;5.68;94.63
41624;BME280;27319;50.306;18.926;2023-04-02T09:13:25;97750.84;;;5.64;94.48
41624;BME280;27319;50.306;18.926;2023-04-02T09:17:04;97756.84;;;5.66;95.35
41624;BME280;27319;50.306;18.926;2023-04-02T09:23:20;97764.66;;;5.23;94.10
41624;BME280;27319;50.306;18.926;2023-04-02T09:26:25;97766.78;;;5.47;94.43
41624;BME280;27319;50.306;18.926;2023-04-02T09:32:54;97780.88;;;5.20;96.95
41624;BME280;27319;50.306;18.926;2023-04-02T09:35:56;97777.72;;;5.44;95.97
41624;BME280;27319;50.306;18.926;2023-04-02T09:42:32;97799.69;;;5.46;95.44
41624;BME280;27319;50.306;18.926;2023-04-02T09:49:37;97804.59;;;5.14;96.03
41624;BME280;27319;50.306;18.926;2023-04-02T09:53:28;97806.31;;;5.42;96.51
41624;BME280;27319;50.306;18.926;2023-04-02T09:56:40;97812.56;;;5.50;97.19
41624;BME280;27319;50.306;18.926;2023-04-02T09:59:41;97819.38;;;5.62;95.48
41624;BME280;27319;50.306;18.926;2023-04-02T10:03:03;97822.81;;;5.45;96.31
41624;BME280;27319;50.306;18.926;2023-04-02T10:07:04;97823.84;;;5.62;95.78
41624;BME280;27319;50.306;18.926;2023-04-02T10:11:08;97831.25;;;5.31;95.64
41624;BME280;27319;50.306;18.926;2023-04-02T10:15:11;97837.16;;;5.25;96.57
41624;BME280;27319;50.306;18.926;2023-04-02T10:19:51;97846.13;;;5.24;96.43
41624;BME280;27319;50.306;18.926;2023-04-02T10:23:14;97847.28;;;5.12;96.98
41624;BME280;27319;50.306;18.926;2023-04-02T10:31:22;97869.28;;;5.05;96.82
41624;BME280;27319;50.306;18.926;2023-04-02T10:35:04;97864.50;;;5.08;96.82
41624;BME280;27319;50.306;18.926;2023-04-02T10:39:08;97868.28;;;5.15;96.70
41624;BME280;27319;50.306;18.926;2023-04-02T10:50:48;97882.94;;;5.38;96.42
41624;BME280;27319;50.306;18.926;2023-04-02T10:54:50;97886.75;;;5.26;95.44
41624;BME280;27319;50.306;18.926;2023-04-02T10:58:58;97894.88;;;5.15;96.44
41624;BME280;27319;50.306;18.926;2023-04-02T11:03:04;97908.31;;;5.23;96.67
41624;BME280;27319;50.306;18.926;2023-04-02T11:06:50;97909.41;;;5.30;95.75
41624;BME280;27319;50.306;18.926;2023-04-02T11:10:15;97912.41;;;4.89;96.05
41624;BME280;27319;50.306;18.926;2023-04-02T11:14:26;97922.75;;;5.11;95.65
41624;BME280;27319;50.306;18.926;2023-04-02T11:18:05;97924.31;;;5.04;96.44
41624;BME280;27319;50.306;18.926;2023-04-02T11:27:32;97939.69;;;5.10;95.01
41624;BME280;27319;50.306;18.926;2023-04-02T11:30:34;97948.09;;;5.15;96.02
41624;BME280;27319;50.306;18.926;2023-04-02T11:33:39;97948.81;;;4.98;96.73
41624;BME280;27319;50.306;18.926;2023-04-02T11:39:55;97950.59;;;5.07;97.00
41624;BME280;27319;50.306;18.926;2023-04-02T11:46:41;97959.00;;;5.12;96.47
41624;BME280;27319;50.306;18.926;2023-04-02T11:56:17;97959.28;;;5.09;95.33
41624;BME280;27319;50.306;18.926;2023-04-02T12:10:33;97972.31;;;5.03;94.43
41624;BME280;27319;50.306;18.926;2023-04-02T12:14:41;97976.78;;;4.93;93.31
41624;BME280;27319;50.306;18.926;2023-04-02T12:18:41;97980.53;;;4.71;94.91
41624;BME280;27319;50.306;18.926;2023-04-02T12:22:51;97985.75;;;4.73;96.57
41624;BME280;27319;50.306;18.926;2023-04-02T12:26:35;97988.09;;;4.85;95.61
41624;BME280;27319;50.306;18.926;2023-04-02T12:29:37;97987.53;;;4.91;95.38
41624;BME280;27319;50.306;18.926;2023-04-02T12:40:38;97995.69;;;4.90;94.60
41624;BME280;27319;50.306;18.926;2023-04-02T12:44:46;98005.63;;;5.07;94.96
41624;BME280;27319;50.306;18.926;2023-04-02T12:48:40;98011.66;;;4.99;95.89
41624;BME280;27319;50.306;18.926;2023-04-02T12:52:23;98004.91;;;5.05;95.03
41624;BME280;27319;50.306;18.926;2023-04-02T12:55:48;98016.28;;;5.07;94.33
41624;BME280;27319;50.306;18.926;2023-04-02T13:03:40;98019.91;;;5.15;93.79
41624;BME280;27319;50.306;18.926;2023-04-02T13:07:41;98031.38;;;5.06;93.66
41624;BME280;27319;50.306;18.926;2023-04-02T13:11:42;98036.56;;;4.89;93.64
41624;BME280;27319;50.306;18.926;2023-04-02T13:15:43;98039.59;;;4.84;94.43
41624;BME280;27319;50.306;18.926;2023-04-02T13:19:38;98037.91;;;4.74;94.40
41624;BME280;27319;50.306;18.926;2023-04-02T13:22:39;98041.84;;;4.79;93.88
41624;BME280;27319;50.306;18.926;2023-04-02T13:25:39;98046.03;;;4.82;94.54
41624;BME280;27319;50.306;18.926;2023-04-02T13:32:37;98053.63;;;4.96;92.89
41624;BME280;27319;50.306;18.926;2023-04-02T13:36:37;98051.66;;;5.07;92.13
41624;BME280;27319;50.306;18.926;2023-04-02T13:40:38;98065.69;;;5.19;92.88
41624;BME280;27319;50.306;18.926;2023-04-02T13:44:39;98069.47;;;5.07;91.71
41624;BME280;27319;50.306;18.926;2023-04-02T13:48:40;98067.63;;;5.07;91.81
41624;BME280;27319;50.306;18.926;2023-04-02T13:52:20;98078.41;;;5.06;91.85
41624;BME280;27319;50.306;18.926;2023-04-02T13:55:24;98075.69;;;4.77;92.98
41624;BME280;27319;50.306;18.926;2023-04-02T13:58:27;98081.28;;;4.74;93.47
41624;BME280;27319;50.306;18.926;2023-04-02T14:01:28;98083.53;;;4.69;93.67
41624;BME280;27319;50.306;18.926;2023-04-02T14:04:33;98090.53;;;4.70;92.30
41624;BME280;27319;50.306;18.926;2023-04-02T14:14:53;98103.25;;;4.76;92.57
41624;BME280;27319;50.306;18.926;2023-04-02T14:18:24;98107.56;;;4.58;92.97
41624;BME280;27319;50.306;18.926;2023-04-02T14:28:53;98119.38;;;4.84;92.67
41624;BME280;27319;50.306;18.926;2023-04-02T14:32:03;98110.16;;;4.88;91.92
41624;BME280;27319;50.306;18.926;2023-04-02T14:36:13;98133.53;;;4.85;91.01
41624;BME280;27319;50.306;18.926;2023-04-02T14:40:02;98128.31;;;4.74;92.19
41624;BME280;27319;50.306;18.926;2023-04-02T14:43:15;98128.53;;;4.61;92.13
41624;BME280;27319;50.306;18.926;2023-04-02T14:46:17;98136.69;;;4.69;91.88
41624;BME280;27319;50.306;18.926;2023-04-02T14:49:38;98140.72;;;4.64;91.69
41624;BME280;27319;50.306;18.926;2023-04-02T14:53:03;98134.84;;;4.70;92.05
41624;BME280;27319;50.306;18.926;2023-04-02T14:57:13;98135.88;;;4.78;91.54
41624;BME280;27319;50.306;18.926;2023-04-02T15:01:19;98144.28;;;4.83;90.81
41624;BME280;27319;50.306;18.926;2023-04-02T15:05:27;98152.31;;;4.63;90.55
41624;BME280;27319;50.306;18.926;2023-04-02T15:09:33;98147.13;;;4.61;91.22
41624;BME280;27319;50.306;18.926;2023-04-02T15:13:16;98161.28;;;4.62;91.08
41624;BME280;27319;50.306;18.926;2023-04-02T15:16:23;98160.28;;;4.63;91.18
41624;BME280;27319;50.306;18.926;2023-04-02T15:19:47;98154.84;;;4.64;90.43
41624;BME280;27319;50.306;18.926;2023-04-02T15:31:02;98170.25;;;4.70;91.08
41624;BME280;27319;50.306;18.926;2023-04-02T15:38:24;98187.97;;;4.60;88.43
41624;BME280;27319;50.306;18.926;2023-04-02T15:49:34;98200.41;;;4.60;89.81
41624;BME280;27319;50.306;18.926;2023-04-02T15:53:29;98207.34;;;4.51;89.15
41624;BME280;27319;50.306;18.926;2023-04-02T15:57:44;98207.34;;;4.51;90.14
41624;BME280;27319;50.306;18.926;2023-04-02T16:05:35;98221.09;;;4.56;88.71
41624;BME280;27319;50.306;18.926;2023-04-02T16:09:24;98223.06;;;4.54;88.00
41624;BME280;27319;50.306;18.926;2023-04-02T16:12:47;98222.88;;;4.46;88.66
41624;BME280;27319;50.306;18.926;2023-04-02T16:16:50;98229.06;;;4.56;89.36
41624;BME280;27319;50.306;18.926;2023-04-02T16:20:33;98234.53;;;4.55;89.30
41624;BME280;27319;50.306;18.926;2023-04-02T16:23:45;98235.88;;;4.49;90.16
41624;BME280;27319;50.306;18.926;2023-04-02T16:34:43;98256.00;;;4.42;89.57
41624;BME280;27319;50.306;18.926;2023-04-02T16:46:09;98262.00;;;4.44;90.67
41624;BME280;27319;50.306;18.926;2023-04-02T16:50:46;98265.72;;;4.32;90.81
41624;BME280;27319;50.306;18.926;2023-04-02T16:53:52;98267.59;;;4.21;91.88
41624;BME280;27319;50.306;18.926;2023-04-02T17:01:15;98277.88;;;4.14;91.82
41624;BME280;27319;50.306;18.926;2023-04-02T17:05:30;98284.75;;;4.17;92.46
41624;BME280;27319;50.306;18.926;2023-04-02T17:09:39;98282.59;;;4.11;92.79
41624;BME280;27319;50.306;18.926;2023-04-02T17:13:44;98292.84;;;4.15;92.25
41624;BME280;27319;50.306;18.926;2023-04-02T17:17:24;98296.13;;;4.08;92.67
41624;BME280;27319;50.306;18.926;2023-04-02T17:20:25;98302.91;;;4.01;92.72
41624;BME280;27319;50.306;18.926;2023-04-02T17:23:28;98298.00;;;3.96;93.61
41624;BME280;27319;50.306;18.926;2023-04-02T17:26:33;98305.47;;;3.91;93.40
41624;BME280;27319;50.306;18.926;2023-04-02T17:30:16;98317.31;;;3.87;93.19
41624;BME280;27319;50.306;18.926;2023-04-02T17:33:58;98306.63;;;4.09;92.89
41624;BME280;27319;50.306;18.926;2023-04-02T17:48:04;98332.31;;;3.88;92.92
41624;BME280;27319;50.306;18.926;2023-04-02T18:02:50;98345.19;;;3.93;93.48
41624;BME280;27319;50.306;18.926;2023-04-02T18:07:23;98352.97;;;3.74;93.35
41624;BME280;27319;50.306;18.926;2023-04-02T18:11:08;98344.09;;;3.95;93.39
41624;BME280;27319;50.306;18.926;2023-04-02T18:14:29;98357.38;;;3.95;92.46
41624;BME280;27319;50.306;18.926;2023-04-02T18:17:52;98352.06;;;3.95;92.47
41624;BME280;27319;50.306;18.926;2023-04-02T18:27:41;98369.69;;;3.85;93.95
41624;BME280;27319;50.306;18.926;2023-04-02T18:35:19;98380.03;;;3.99;93.28
41624;BME280;27319;50.306;18.926;2023-04-02T18:39:13;98383.97;;;3.73;94.56
41624;BME280;27319;50.306;18.926;2023-04-02T18:57:45;98392.16;;;3.70;95.29
41624;BME280;27319;50.306;18.926;2023-04-02T19:01:47;98398.78;;;3.76;94.71
41624;BME280;27319;50.306;18.926;2023-04-02T19:05:48;98394.56;;;3.73;94.63
41624;BME280;27319;50.306;18.926;2023-04-02T19:09:46;98398.91;;;3.85;94.14
41624;BME280;27319;50.306;18.926;2023-04-02T19:13:47;98409.31;;;3.66;95.32
41624;BME280;27319;50.306;18.926;2023-04-02T19:17:37;98407.25;;;3.81;94.82
41624;BME280;27319;50.306;18.926;2023-04-02T19:20:47;98411.97;;;3.66;95.25
41624;BME280;27319;50.306;18.926;2023-04-02T19:35:13;98418.47;;;3.62;96.01
41624;BME280;27319;50.306;18.926;2023-04-02T19:41:43;98424.25;;;3.67;95.25
41624;BME280;27319;50.306;18.926;2023-04-02T19:44:49;98434.38;;;3.62;95.75
41624;BME280;27319;50.306;18.926;2023-04-02T19:47:51;98432.94;;;3.58;95.76
41624;BME280;27319;50.306;18.926;2023-04-02T19:50:52;98432.22;;;3.67;95.25
41624;BME280;27319;50.306;18.926;2023-04-02T19:53:53;98433.91;;;3.68;94.60
41624;BME280;27319;50.306;18.926;2023-04-02T19:56:55;98439.69;;;3.51;95.10
41624;BME280;27319;50.306;18.926;2023-04-02T19:59:56;98438.63;;;3.65;94.89
41624;BME280;27319;50.306;18.926;2023-04-02T20:03:16;98436.53;;;3.35;96.21
41624;BME280;27319;50.306;18.926;2023-04-02T20:06:39;98439.59;;;3.64;95.20
41624;BME280;27319;50.306;18.926;2023-04-02T20:09:40;98439.91;;;3.59;95.57
41624;BME280;27319;50.306;18.926;2023-04-02T20:12:41;98446.34;;;3.57;95.47
41624;BME280;27319;50.306;18.926;2023-04-02T20:15:42;98447.28;;;3.45;95.98
41624;BME280;27319;50.306;18.926;2023-04-02T20:18:43;98452.94;;;3.29;96.80
41624;BME280;27319;50.306;18.926;2023-04-02T20:21:44;98458.72;;;3.34;96.08
41624;BME280;27319;50.306;18.926;2023-04-02T20:25:05;98462.75;;;3.51;95.74
41624;BME280;27319;50.306;18.926;2023-04-02T20:28:07;98457.75;;;3.35;96.39
41624;BME280;27319;50.306;18.926;2023-04-02T20:31:11;98453.78;;;3.30;96.32
41624;BME280;27319;50.306;18.926;2023-04-02T20:34:32;98462.47;;;3.32;97.46
41624;BME280;27319;50.306;18.926;2023-04-02T20:38:08;98463.81;;;3.37;97.22
41624;BME280;27319;50.306;18.926;2023-04-02T20:42:09;98469.13;;;3.48;96.00
41624;BME280;27319;50.306;18.926;2023-04-02T20:46:13;98475.13;;;3.39;96.33
41624;BME280;27319;50.306;18.926;2023-04-02T20:50:14;98470.41;;;3.32;96.73
41624;BME280;27319;50.306;18.926;2023-04-02T20:54:15;98480.91;;;3.33;96.28
41624;BME280;27319;50.306;18.926;2023-04-02T20:58:16;98477.53;;;3.31;96.06
41624;BME280;27319;50.306;18.926;2023-04-02T21:02:16;98474.00;;;3.20;97.02
41624;BME280;27319;50.306;18.926;2023-04-02T21:05:57;98483.94;;;3.40;96.56
41624;BME280;27319;50.306;18.926;2023-04-02T21:09:18;98485.63;;;3.41;95.44
41624;BME280;27319;50.306;18.926;2023-04-02T21:13:18;98481.53;;;3.37;96.10
41624;BME280;27319;50.306;18.926;2023-04-02T21:17:19;98484.75;;;3.29;96.08
41624;BME280;27319;50.306;18.926;2023-04-02T21:21:21;98489.59;;;3.35;95.78
41624;BME280;27319;50.306;18.926;2023-04-02T21:25:21;98492.84;;;3.28;95.95
41624;BME280;27319;50.306;18.926;2023-04-02T21:29:22;98486.66;;;3.16;96.21
41624;BME280;27319;50.306;18.926;2023-04-02T21:33:22;98498.38;;;3.25;95.61
41624;BME280;27319;50.306;18.926;2023-04-02T21:37:23;98499.91;;;3.16;95.93
41624;BME280;27319;50.306;18.926;2023-04-02T21:44:35;98509.31;;;3.09;94.84
41624;BME280;27319;50.306;18.926;2023-04-02T21:48:36;98525.94;;;3.11;94.98
41624;BME280;27319;50.306;18.926;2023-04-02T21:52:37;98517.69;;;2.92;94.76
41624;BME280;27319;50.306;18.926;2023-04-02T21:56:39;98521.28;;;2.91;95.34
41624;BME280;27319;50.306;18.926;2023-04-02T22:00:38;98523.09;;;2.91;95.54
41624;BME280;27319;50.306;18.926;2023-04-02T22:04:39;98528.50;;;2.89;95.60
41624;BME280;27319;50.306;18.926;2023-04-02T22:08:40;98534.81;;;2.99;95.49
41624;BME280;27319;50.306;18.926;2023-04-02T22:12:40;98539.09;;;2.89;95.28
41624;BME280;27319;50.306;18.926;2023-04-02T22:16:24;98543.09;;;2.71;95.20
41624;BME280;27319;50.306;18.926;2023-04-02T22:19:45;98542.91;;;2.74;96.29
41624;BME280;27319;50.306;18.926;2023-04-02T22:23:46;98541.06;;;2.75;96.29
41624;BME280;27319;50.306;18.926;2023-04-02T22:27:27;98550.91;;;2.85;95.65
41624;BME280;27319;50.306;18.926;2023-04-02T22:30:47;98552.75;;;2.72;96.29
41624;BME280;27319;50.306;18.926;2023-04-02T22:34:48;98551.91;;;2.72;95.07
41624;BME280;27319;50.306;18.926;2023-04-02T22:38:49;98560.81;;;2.71;95.65
41624;BME280;27319;50.306;18.926;2023-04-02T22:42:50;98556.47;;;2.70;95.56
41624;BME280;27319;50.306;18.926;2023-04-02T22:46:31;98560.69;;;2.72;95.32
41624;BME280;27319;50.306;18.926;2023-04-02T22:49:51;98562.09;;;2.65;95.61
41624;BME280;27319;50.306;18.926;2023-04-02T22:53:53;98559.09;;;2.70;95.11
41624;BME280;27319;50.306;18.926;2023-04-02T22:57:53;98553.09;;;2.68;95.43
41624;BME280;27319;50.306;18.926;2023-04-02T23:01:54;98555.31;;;2.61;95.07
41624;BME280;27319;50.306;18.926;2023-04-02T23:06:02;98560.41;;;2.64;95.04
41624;BME280;27319;50.306;18.926;2023-04-02T23:10:02;98564.06;;;2.51;95.43
41624;BME280;27319;50.306;18.926;2023-04-02T23:14:02;98560.06;;;2.45;95.84
41624;BME280;27319;50.306;18.926;2023-04-02T23:17:44;98564.41;;;2.46;96.46
41624;BME280;27319;50.306;18.926;2023-04-02T23:20:45;98562.34;;;2.62;95.28
41624;BME280;27319;50.306;18.926;2023-04-02T23:24:06;98562.38;;;2.50;95.50
41624;BME280;27319;50.306;18.926;2023-04-02T23:27:47;98566.88;;;2.60;95.43
41624;BME280;27319;50.306;18.926;2023-04-02T23:31:10;98568.03;;;2.69;95.86
41624;BME280;27319;50.306;18.926;2023-04-02T23:35:09;98566.13;;;2.71;94.73
41624;BME280;27319;50.306;18.926;2023-04-02T23:39:10;98564.94;;;2.51;95.34
41624;BME280;27319;50.306;18.926;2023-04-02T23:43:10;98578.00;;;2.65;94.69
41624;BME280;27319;50.306;18.926;2023-04-02T23:47:11;98566.09;;;2.47;95.27